KEVV/EVV METAR and TAF weather

Enter ICAO airport designator
Station Type Date Time Source
KEVV METAR 2023/02/05 23:54 UTC NOAA

KEVV 052354Z 23006KT 10SM CLR 07/01 A3009 RMK AO2 SLP189 T00670006 10128 20067 53015 $


Station Type Date Time Source
KEVV Decoded METAR 2023/02/05 23:54 UTC NOAA

EVANSVILLE REGIONAL, IN, United States (KEVV) 38-02N 087-32W 117M
Feb 05, 2023 - 06:54 PM EST / 2023.02.05 2354 UTC
Wind: from the SW (230 degrees) at 7 MPH (6 KT):0
Visibility: 10 mile(s):0
Sky conditions: clear
Temperature: 44.1 F (6.7 C)
Dew Point: 33.1 F (0.6 C)
Relative Humidity: 65%
Pressure (altimeter): 30.09 in. Hg (1018 hPa)
Pressure tendency: 0.04 inches (1.5 hPa) higher than three hours ago
ob: KEVV 052354Z 23006KT 10SM CLR 07/01 A3009 RMK AO2 SLP189 T00670006 10128 20067 53015
cycle: 0

Station Type Date Time Source
KEVV TAF 2023/02/05 18:24 UTC NOAA

TAF KEVV 051723Z 0518/0618 22010KT P6SM SKC
TEMPO 0518/0522 23010G18KT
FM060000 24006KT P6SM SKC
FM060500 28005KT P6SM FEW250
FM061700 12006KT P6SM SCT250

Example: see airport list